Time;durP1;ratioP1;P1;durP2;ratioP2;P2;SDS_P1;SDS_P2;PMS_P1;PMS_P2;Temp;Humidity;BMP_temperature;BMP_pressure;BME280_temperature;BME280_humidity;BME280_pressure;Samples;Min_cycle;Max_cycle;Signal;HPM_P1;HPM_P2
2021/01/25 00:00:09;;;;;;;8.82;5.13;;;;;8.20;99671.00;;;;5029360;28;20227;-79
2021/01/25 00:02:36;;;;;;;14.15;6.00;;;;;8.20;99662.00;;;;5029799;28;20203;-79
2021/01/25 00:05:04;;;;;;;8.63;4.78;;;;;8.20;99673.00;;;;5029734;28;20196;-79
2021/01/25 00:07:31;;;;;;;6.57;4.78;;;;;8.20;99672.00;;;;5029320;28;20196;-78
2021/01/25 00:09:57;;;;;;;6.95;4.80;;;;;8.20;99668.00;;;;5029033;28;20666;-79
2021/01/25 00:12:24;;;;;;;8.95;4.93;;;;;8.20;99659.00;;;;5029831;28;20207;-79
2021/01/25 00:14:51;;;;;;;6.80;4.05;;;;;8.20;99670.00;;;;5025747;28;20563;-79
2021/01/25 00:17:18;;;;;;;6.20;4.55;;;;;8.20;99670.00;;;;5029705;28;20196;-78
2021/01/25 00:19:45;;;;;;;6.53;4.43;;;;;8.20;99666.00;;;;5027911;28;20200;-79
2021/01/25 00:22:12;;;;;;;6.40;4.28;;;;;8.10;99667.00;;;;5029214;28;20200;-78
2021/01/25 00:24:39;;;;;;;6.13;4.68;;;;;8.10;99669.00;;;;5028958;28;20193;-79
2021/01/25 00:27:06;;;;;;;5.47;3.67;;;;;8.10;99665.00;;;;5029150;28;20219;-79
2021/01/25 00:29:32;;;;;;;6.78;4.45;;;;;8.20;99675.00;;;;5029477;28;20258;-78
2021/01/25 00:31:59;;;;;;;6.60;4.57;;;;;8.20;99677.00;;;;5028841;28;20200;-79
2021/01/25 00:34:27;;;;;;;7.60;4.82;;;;;8.20;99675.00;;;;5028713;28;20235;-78
2021/01/25 00:36:54;;;;;;;7.70;5.05;;;;;8.10;99676.00;;;;5028610;28;20570;-79
2021/01/25 00:39:21;;;;;;;7.82;4.65;;;;;8.20;99679.00;;;;5028038;28;20544;-79
2021/01/25 00:41:48;;;;;;;6.28;4.40;;;;;8.10;99681.00;;;;5027978;28;20228;-79
2021/01/25 00:44:15;;;;;;;7.78;4.25;;;;;8.10;99683.00;;;;5027113;28;20196;-79
2021/01/25 00:46:42;;;;;;;7.63;4.78;;;;;8.20;99692.00;;;;5028258;28;20204;-79
2021/01/25 00:49:09;;;;;;;7.03;4.45;;;;;8.20;99687.00;;;;5027949;28;20201;-78
2021/01/25 00:51:36;;;;;;;6.55;4.35;;;;;8.20;99679.00;;;;5027728;28;20208;-79
2021/01/25 00:54:03;;;;;;;7.38;4.95;;;;;8.20;99690.00;;;;5028328;28;20208;-79
2021/01/25 00:56:30;;;;;;;6.25;4.43;;;;;8.20;99690.00;;;;5025941;28;20208;-79
2021/01/25 00:58:57;;;;;;;8.10;4.55;;;;;8.20;99690.00;;;;5010524;28;20247;-79
2021/01/25 01:01:24;;;;;;;8.27;4.43;;;;;8.20;99694.00;;;;5027961;28;20216;-79
2021/01/25 01:03:50;;;;;;;6.47;4.28;;;;;8.20;99695.00;;;;5027368;28;20215;-79
2021/01/25 01:06:17;;;;;;;6.88;4.18;;;;;8.20;99692.00;;;;5027949;28;20254;-79
2021/01/25 01:08:44;;;;;;;6.50;4.35;;;;;8.20;99704.00;;;;5028253;28;20587;-79
2021/01/25 01:11:11;;;;;;;5.70;4.00;;;;;8.20;99703.00;;;;5027536;28;20681;-79
2021/01/25 01:13:38;;;;;;;6.55;4.28;;;;;8.20;99698.00;;;;5027665;28;20222;-79
2021/01/25 01:16:05;;;;;;;6.30;4.10;;;;;8.30;99693.00;;;;5026905;28;20212;-79
2021/01/25 01:18:34;;;;;;;7.30;4.63;;;;;8.20;99692.00;;;;5027727;28;20200;-79
2021/01/25 01:21:01;;;;;;;6.05;4.38;;;;;8.20;99700.00;;;;5027031;28;20223;-79
2021/01/25 01:23:28;;;;;;;8.20;3.95;;;;;8.20;99712.00;;;;5027641;28;20192;-79
2021/01/25 01:25:56;;;;;;;7.07;4.30;;;;;8.20;99712.00;;;;5027602;28;20261;-79
2021/01/25 01:28:22;;;;;;;6.95;3.80;;;;;8.20;99712.00;;;;5026786;28;20203;-79
2021/01/25 01:30:49;;;;;;;7.57;4.70;;;;;8.20;99713.00;;;;5027530;28;20245;-79
2021/01/25 01:33:16;;;;;;;9.40;4.70;;;;;8.20;99710.00;;;;5026984;28;20255;-79
2021/01/25 01:35:42;;;;;;;7.95;4.55;;;;;8.20;99717.00;;;;5027285;28;20204;-78
2021/01/25 01:38:09;;;;;;;7.40;4.45;;;;;8.10;99727.00;;;;5027275;28;20207;-79
2021/01/25 01:40:36;;;;;;;9.00;4.72;;;;;8.10;99722.00;;;;5028451;28;20575;-79
2021/01/25 01:43:03;;;;;;;7.85;5.03;;;;;8.10;99723.00;;;;5026847;28;20243;-79
2021/01/25 01:45:30;;;;;;;7.50;4.60;;;;;8.10;99723.00;;;;5027875;28;20192;-79
2021/01/25 01:47:57;;;;;;;6.95;4.45;;;;;8.10;99722.00;;;;5026851;28;20207;-79
2021/01/25 01:50:24;;;;;;;7.35;4.63;;;;;8.10;99723.00;;;;5028244;28;20200;-78
2021/01/25 01:52:52;;;;;;;7.05;5.13;;;;;8.10;99725.00;;;;5027619;28;20204;-78
2021/01/25 01:55:19;;;;;;;8.00;4.72;;;;;8.10;99726.00;;;;5028175;28;20197;-79
2021/01/25 01:57:50;;;;;;;6.57;4.13;;;;;8.00;99730.00;;;;5027659;28;20215;-79
2021/01/25 02:00:19;;;;;;;6.95;4.47;;;;;8.00;99727.00;;;;5027375;28;20216;-79
2021/01/25 02:02:46;;;;;;;8.27;4.53;;;;;8.00;99736.00;;;;5027620;28;20204;-79
2021/01/25 02:05:14;;;;;;;7.88;4.53;;;;;8.00;99741.00;;;;5028286;28;20196;-79
2021/01/25 02:07:44;;;;;;;7.03;4.20;;;;;8.00;99737.00;;;;5027548;28;20200;-78
2021/01/25 02:10:12;;;;;;;7.28;4.65;;;;;8.00;99745.00;;;;5028431;28;20204;-79
2021/01/25 02:12:39;;;;;;;6.30;4.35;;;;;8.00;99746.00;;;;5027485;28;20188;-79
2021/01/25 02:15:07;;;;;;;6.32;4.32;;;;;8.00;99741.00;;;;5027446;28;20220;-79
2021/01/25 02:17:35;;;;;;;7.13;4.60;;;;;8.10;99742.00;;;;5022541;28;20239;-79
2021/01/25 02:20:06;;;;;;;7.75;5.05;;;;;8.00;99745.00;;;;5026865;28;20274;-79
2021/01/25 02:22:59;;;;;;;6.45;4.28;;;;;8.00;99751.00;;;;5028334;28;20192;-79
2021/01/25 02:25:36;;;;;;;6.13;4.43;;;;;8.00;99742.00;;;;5027355;28;20819;-79
2021/01/25 02:28:05;;;;;;;7.68;4.88;;;;;8.10;99742.00;;;;5027823;28;20585;-79
2021/01/25 02:30:32;;;;;;;8.10;4.85;;;;;8.10;99748.00;;;;5026485;28;20203;-79
2021/01/25 02:32:59;;;;;;;6.65;4.25;;;;;8.10;99749.00;;;;5027383;28;20192;-78
2021/01/25 02:35:27;;;;;;;6.55;4.53;;;;;8.10;99755.00;;;;5028199;28;20224;-78
2021/01/25 02:37:55;;;;;;;7.82;4.90;;;;;8.10;99750.00;;;;5026969;28;20200;-79
2021/01/25 02:40:23;;;;;;;6.80;4.22;;;;;8.10;99749.00;;;;5027393;28;20223;-79
2021/01/25 02:42:53;;;;;;;7.95;4.88;;;;;8.10;99748.00;;;;5027198;28;20192;-78
2021/01/25 02:45:22;;;;;;;6.90;4.57;;;;;8.10;99756.00;;;;5027372;28;20684;-79
2021/01/25 02:47:49;;;;;;;7.30;4.88;;;;;8.00;99760.00;;;;5031997;28;20199;-79
2021/01/25 02:50:16;;;;;;;8.65;4.80;;;;;8.00;99756.00;;;;5030936;28;20480;-78
2021/01/25 02:52:42;;;;;;;7.22;4.72;;;;;8.00;99762.00;;;;5032386;28;20204;-79
2021/01/25 02:55:10;;;;;;;8.38;4.65;;;;;8.00;99760.00;;;;5030785;28;20553;-79
2021/01/25 02:57:39;;;;;;;11.20;5.63;;;;;8.00;99765.00;;;;5030645;28;20682;-79
2021/01/25 03:00:08;;;;;;;7.38;5.07;;;;;8.00;99763.00;;;;5030104;28;20231;-79
2021/01/25 03:02:38;;;;;;;7.25;5.32;;;;;7.90;99767.00;;;;5030816;28;20210;-79
2021/01/25 03:05:05;;;;;;;6.60;4.70;;;;;8.00;99774.00;;;;5031072;28;20204;-79
2021/01/25 03:07:32;;;;;;;8.25;4.78;;;;;7.90;99778.00;;;;5031109;28;20216;-79
2021/01/25 03:10:00;;;;;;;6.57;4.55;;;;;7.90;99777.00;;;;5029754;28;20740;-79
2021/01/25 03:12:27;;;;;;;9.68;5.75;;;;;7.90;99773.00;;;;5030755;28;20279;-79
2021/01/25 03:14:55;;;;;;;7.95;5.55;;;;;7.90;99781.00;;;;5030376;28;20212;-79
2021/01/25 03:17:21;;;;;;;8.07;5.20;;;;;7.80;99775.00;;;;5030884;28;20565;-79
2021/01/25 03:19:49;;;;;;;7.60;5.00;;;;;7.80;99780.00;;;;5012356;28;20251;-78
2021/01/25 03:22:16;;;;;;;9.00;5.53;;;;;7.80;99786.00;;;;5027525;28;20478;-79
2021/01/25 03:24:43;;;;;;;5.88;4.70;;;;;7.80;99790.00;;;;5029862;28;20208;-79
2021/01/25 03:27:09;;;;;;;8.02;5.22;;;;;7.70;99788.00;;;;5030025;28;20204;-79
2021/01/25 03:29:36;;;;;;;8.85;5.65;;;;;7.70;99790.00;;;;5029251;28;20678;-78
2021/01/25 03:32:03;;;;;;;8.90;6.20;;;;;7.60;99804.00;;;;5029415;28;20208;-78
2021/01/25 03:34:30;;;;;;;9.50;5.70;;;;;7.60;99805.00;;;;5029748;28;20254;-78
2021/01/25 03:36:57;;;;;;;7.93;5.35;;;;;7.60;99804.00;;;;5029612;28;20662;-78
2021/01/25 03:39:24;;;;;;;8.13;5.63;;;;;7.60;99795.00;;;;5029538;28;20200;-78
2021/01/25 03:41:51;;;;;;;9.25;5.80;;;;;7.50;99804.00;;;;5028100;28;20224;-77
2021/01/25 03:44:18;;;;;;;8.90;6.05;;;;;7.50;99805.00;;;;5028177;28;20564;-77
2021/01/25 03:46:46;;;;;;;9.68;6.32;;;;;7.50;99820.00;;;;5028997;28;20223;-77
2021/01/25 03:49:14;;;;;;;7.68;4.80;;;;;7.50;99805.00;;;;5028860;28;20207;-77
2021/01/25 03:51:41;;;;;;;9.88;6.15;;;;;7.50;99806.00;;;;5029708;28;20192;-77
2021/01/25 03:54:13;;;;;;;8.75;5.75;;;;;7.40;99812.00;;;;5029764;28;20222;-77
2021/01/25 03:56:41;;;;;;;8.77;6.25;;;;;7.40;99818.00;;;;5028404;28;20239;-77
2021/01/25 03:59:07;;;;;;;10.73;6.03;;;;;7.40;99809.00;;;;5029328;28;20509;-77
2021/01/25 04:01:34;;;;;;;9.25;5.97;;;;;7.40;99819.00;;;;5029370;28;20239;-77
2021/01/25 04:04:01;;;;;;;9.55;6.25;;;;;7.40;99818.00;;;;5012254;28;20201;-77
2021/01/25 04:06:28;;;;;;;9.70;6.72;;;;;7.40;99822.00;;;;5022320;28;20196;-77
2021/01/25 04:08:54;;;;;;;10.18;7.13;;;;;7.40;99827.00;;;;5029260;28;20204;-77
2021/01/25 04:11:22;;;;;;;9.25;6.10;;;;;7.30;99826.00;;;;5027587;28;20674;-77
2021/01/25 04:13:49;;;;;;;9.23;5.85;;;;;7.30;99826.00;;;;5029362;28;20200;-77
2021/01/25 04:16:15;;;;;;;10.48;6.65;;;;;7.30;99831.00;;;;5028635;28;20696;-78
2021/01/25 04:18:42;;;;;;;9.60;6.22;;;;;7.30;99836.00;;;;5029303;28;20283;-77
2021/01/25 04:21:09;;;;;;;10.70;6.93;;;;;7.30;99849.00;;;;5028431;28;20220;-77
2021/01/25 04:23:36;;;;;;;10.88;6.60;;;;;7.30;99846.00;;;;5029451;28;20400;-77
2021/01/25 04:26:03;;;;;;;9.23;6.57;;;;;7.30;99852.00;;;;5027949;28;20203;-77
2021/01/25 04:28:31;;;;;;;10.00;6.28;;;;;7.20;99854.00;;;;5027326;28;20208;-77
2021/01/25 04:30:58;;;;;;;10.00;6.72;;;;;7.20;99859.00;;;;5028724;28;20625;-77
2021/01/25 04:33:24;;;;;;;10.35;7.13;;;;;7.20;99857.00;;;;5028806;28;20197;-77
2021/01/25 04:35:51;;;;;;;11.05;7.10;;;;;7.10;99857.00;;;;5028645;28;20255;-77
2021/01/25 04:38:18;;;;;;;10.70;6.53;;;;;7.10;99865.00;;;;5028458;28;20208;-77
2021/01/25 04:40:44;;;;;;;12.05;7.13;;;;;7.10;99864.00;;;;5028243;28;20220;-77
2021/01/25 04:43:11;;;;;;;9.82;6.40;;;;;7.10;99868.00;;;;5028430;28;20204;-77
2021/01/25 04:45:40;;;;;;;12.35;7.70;;;;;7.00;99872.00;;;;5028514;28;20189;-77
2021/01/25 04:48:07;;;;;;;11.65;7.35;;;;;7.00;99877.00;;;;5028359;28;20192;-77
2021/01/25 04:50:34;;;;;;;12.50;7.60;;;;;7.00;99878.00;;;;5027290;28;20193;-77
2021/01/25 04:53:02;;;;;;;11.77;6.85;;;;;7.00;99876.00;;;;5027657;28;20726;-77
2021/01/25 04:55:29;;;;;;;10.95;7.50;;;;;7.00;99882.00;;;;5028432;28;20207;-77
2021/01/25 04:57:57;;;;;;;11.15;7.28;;;;;7.00;99890.00;;;;5027891;28;20200;-77
2021/01/25 05:00:24;;;;;;;12.30;7.03;;;;;7.00;99889.00;;;;5027710;28;20278;-77
2021/01/25 05:02:52;;;;;;;10.85;7.28;;;;;7.00;99886.00;;;;5028451;28;20216;-77
2021/01/25 05:05:19;;;;;;;10.95;7.47;;;;;7.00;99894.00;;;;5027139;28;20193;-77
2021/01/25 05:07:46;;;;;;;12.70;7.68;;;;;7.00;99892.00;;;;5027820;28;20200;-77
2021/01/25 05:10:13;;;;;;;12.63;7.35;;;;;7.00;99896.00;;;;5027471;28;20200;-77
2021/01/25 05:12:43;;;;;;;14.40;7.80;;;;;6.90;99898.00;;;;5027963;28;20258;-77
2021/01/25 05:15:11;;;;;;;9.60;6.60;;;;;7.00;99903.00;;;;5027366;28;20221;-77
2021/01/25 05:17:38;;;;;;;12.65;7.20;;;;;7.00;99912.00;;;;5028408;28;20578;-77
2021/01/25 05:20:09;;;;;;;10.20;7.10;;;;;6.90;99908.00;;;;5026828;28;20196;-77
2021/01/25 05:22:39;;;;;;;11.43;6.97;;;;;6.90;99910.00;;;;5012675;28;20216;-77
2021/01/25 05:25:09;;;;;;;13.00;7.63;;;;;6.90;99917.00;;;;5022350;28;20192;-77
2021/01/25 05:27:36;;;;;;;11.77;6.95;;;;;6.90;99916.00;;;;5027234;28;20281;-77
2021/01/25 05:30:10;;;;;;;11.82;7.80;;;;;6.90;99916.00;;;;5026733;28;20623;-77
2021/01/25 05:32:48;;;;;;;11.80;7.35;;;;;6.80;99925.00;;;;5027804;28;20191;-77
2021/01/25 05:35:17;;;;;;;11.95;7.63;;;;;6.90;99921.00;;;;5027322;28;20228;-77
2021/01/25 05:37:50;;;;;;;13.50;8.23;;;;;6.80;99930.00;;;;5026837;28;21037;-77
2021/01/25 05:40:17;;;;;;;12.10;8.20;;;;;6.80;99924.00;;;;5027483;28;20202;-77
2021/01/25 05:42:44;;;;;;;12.68;7.93;;;;;6.80;99927.00;;;;5027650;28;20254;-77
2021/01/25 05:45:12;;;;;;;12.18;6.50;;;;;6.80;99931.00;;;;5027647;28;20200;-77
2021/01/25 05:47:47;;;;;;;10.25;6.45;;;;;6.70;99928.00;;;;5019182;28;20204;-77
2021/01/25 05:50:35;;;;;;;10.80;7.10;;;;;6.70;99936.00;;;;5027291;28;20295;-77
2021/01/25 05:53:04;;;;;;;12.57;8.13;;;;;6.70;99942.00;;;;5023217;28;20204;-77
2021/01/25 05:55:31;;;;;;;12.93;7.55;;;;;6.70;99940.00;;;;5026465;28;20196;-77
2021/01/25 05:57:59;;;;;;;11.20;7.45;;;;;6.70;99945.00;;;;5023168;28;20275;-77
2021/01/25 06:00:28;;;;;;;11.38;7.45;;;;;6.70;99945.00;;;;5027868;28;20662;-77
2021/01/25 06:02:55;;;;;;;11.00;7.57;;;;;6.70;99955.00;;;;5026422;28;20196;-77
2021/01/25 06:05:38;;;;;;;12.68;8.20;;;;;6.60;99956.00;;;;5026938;28;20200;-77
2021/01/25 06:08:18;;;;;;;10.15;6.72;;;;;6.60;99962.00;;;;5028046;28;20302;-77
2021/01/25 06:10:53;;;;;;;12.15;7.45;;;;;6.60;99967.00;;;;5027203;28;20207;-77
2021/01/25 06:13:25;;;;;;;10.82;7.63;;;;;6.50;99966.00;;;;5027951;28;20242;-77
2021/01/25 06:15:53;;;;;;;13.65;7.53;;;;;6.50;99972.00;;;;5027500;28;20220;-76
2021/01/25 06:18:22;;;;;;;9.80;6.45;;;;;6.50;99975.00;;;;5026698;28;20675;-77
2021/01/25 06:20:53;;;;;;;11.35;7.43;;;;;6.50;99980.00;;;;5027383;28;20216;-78
2021/01/25 06:23:19;;;;;;;10.57;7.90;;;;;6.50;99977.00;;;;5031215;28;20246;-77
2021/01/25 06:25:49;;;;;;;13.45;8.20;;;;;6.50;99991.00;;;;5029589;28;20200;-78
2021/01/25 06:28:16;;;;;;;11.10;7.50;;;;;6.50;99983.00;;;;5030187;28;20423;-77
2021/01/25 06:30:44;;;;;;;13.93;7.40;;;;;6.40;99991.00;;;;5031141;28;20200;-78
2021/01/25 06:33:15;;;;;;;12.13;7.75;;;;;6.40;99991.00;;;;5028283;28;20319;-77
2021/01/25 06:35:42;;;;;;;10.15;6.88;;;;;6.40;99990.00;;;;5011314;28;20228;-78
2021/01/25 06:38:15;;;;;;;11.82;7.85;;;;;6.30;99998.00;;;;5011538;28;20205;-77
2021/01/25 06:40:44;;;;;;;14.48;8.68;;;;;6.40;100002.00;;;;5009757;28;20228;-77
2021/01/25 06:43:13;;;;;;;12.05;7.88;;;;;6.30;100001.00;;;;5011301;28;20204;-77
2021/01/25 06:45:42;;;;;;;13.20;7.28;;;;;6.30;100011.00;;;;5010305;28;20659;-78
2021/01/25 06:48:12;;;;;;;10.05;7.28;;;;;6.30;100012.00;;;;5011042;28;20196;-78
2021/01/25 06:50:38;;;;;;;11.23;7.93;;;;;6.30;100010.00;;;;5009088;28;20256;-77
2021/01/25 06:53:05;;;;;;;11.45;7.68;;;;;6.20;100010.00;;;;5011020;28;20220;-77
2021/01/25 06:55:34;;;;;;;9.95;6.85;;;;;6.20;100013.00;;;;5010582;28;20224;-78
2021/01/25 06:58:05;;;;;;;11.50;7.63;;;;;6.20;100023.00;;;;5009159;28;20425;-77
2021/01/25 07:00:33;;;;;;;12.15;7.20;;;;;6.20;100022.00;;;;5010656;28;20220;-76
2021/01/25 07:03:03;;;;;;;12.07;7.38;;;;;6.20;100033.00;;;;5003552;28;20289;-77
2021/01/25 07:05:30;;;;;;;11.68;6.90;;;;;6.20;100039.00;;;;5007744;28;20193;-77
2021/01/25 07:08:17;;;;;;;10.98;6.97;;;;;6.00;100045.00;;;;5010667;28;20725;-77
2021/01/25 07:10:58;;;;;;;13.02;7.78;;;;;6.00;100050.00;;;;5009701;28;20252;-76
2021/01/25 07:13:27;;;;;;;9.15;6.32;;;;;6.00;100054.00;;;;5010826;28;20197;-77
2021/01/25 07:15:55;;;;;;;11.65;7.25;;;;;6.00;100053.00;;;;5010325;28;20221;-77
2021/01/25 07:18:22;;;;;;;10.52;7.00;;;;;6.00;100060.00;;;;5010802;28;20205;-75
2021/01/25 07:20:51;;;;;;;9.10;6.70;;;;;6.00;100067.00;;;;5010307;28;20232;-76
2021/01/25 07:23:19;;;;;;;10.95;6.25;;;;;6.00;100073.00;;;;5009975;28;20663;-77
2021/01/25 07:25:47;;;;;;;12.10;7.20;;;;;6.00;100069.00;;;;5010301;28;20221;-77
2021/01/25 07:28:15;;;;;;;11.93;8.20;;;;;6.00;100069.00;;;;5010478;28;20284;-76
2021/01/25 07:30:41;;;;;;;13.63;7.97;;;;;6.00;100079.00;;;;5009991;28;20201;-76
2021/01/25 07:33:08;;;;;;;12.65;8.15;;;;;6.00;100089.00;;;;5008716;28;20247;-76
2021/01/25 07:35:35;;;;;;;13.63;7.50;;;;;6.00;100093.00;;;;5029514;28;20621;-77
2021/01/25 07:38:01;;;;;;;12.57;7.05;;;;;6.00;100091.00;;;;5030099;28;20654;-76
2021/01/25 07:40:28;;;;;;;11.18;7.13;;;;;6.00;100095.00;;;;5029974;28;20258;-76
2021/01/25 07:42:55;;;;;;;11.27;6.75;;;;;6.00;100099.00;;;;5029734;28;20200;-75
2021/01/25 07:45:23;;;;;;;12.82;6.80;;;;;6.00;100102.00;;;;5031334;28;20196;-76
2021/01/25 07:47:50;;;;;;;12.57;7.13;;;;;6.00;100111.00;;;;5031076;28;20740;-77
2021/01/25 07:50:17;;;;;;;12.80;7.32;;;;;6.00;100118.00;;;;5030731;28;20231;-77
2021/01/25 07:52:44;;;;;;;9.95;6.65;;;;;6.00;100115.00;;;;5031165;28;20200;-76
2021/01/25 07:55:15;;;;;;;11.35;7.07;;;;;6.00;100123.00;;;;5028791;28;20200;-75
2021/01/25 07:57:42;;;;;;;11.40;6.97;;;;;6.00;100122.00;;;;5029627;28;20193;-76
2021/01/25 08:00:30;;;;;;;11.50;7.32;;;;;6.00;100127.00;;;;5030499;28;20240;-76
2021/01/25 08:03:03;;;;;;;11.82;6.65;;;;;6.00;100133.00;;;;5018914;28;20559;-76
2021/01/25 08:05:30;;;;;;;11.32;6.75;;;;;6.10;100138.00;;;;5027622;28;20203;-76
2021/01/25 08:07:58;;;;;;;10.40;6.63;;;;;6.10;100142.00;;;;5028764;28;20585;-76
2021/01/25 08:10:25;;;;;;;10.43;7.10;;;;;6.10;100143.00;;;;5029393;28;20736;-76
2021/01/25 08:12:52;;;;;;;11.80;6.90;;;;;6.10;100140.00;;;;5029000;28;20212;-76
2021/01/25 08:15:24;;;;;;;13.07;7.82;;;;;6.10;100148.00;;;;5028461;28;20456;-75
2021/01/25 08:17:55;;;;;;;11.43;6.82;;;;;6.10;100154.00;;;;5021711;28;20204;-75
2021/01/25 08:20:25;;;;;;;10.80;7.38;;;;;6.10;100151.00;;;;5020066;28;20744;-75
2021/01/25 08:22:57;;;;;;;11.00;7.43;;;;;6.10;100154.00;;;;5018463;28;20242;-77
2021/01/25 08:25:27;;;;;;;14.27;7.40;;;;;6.20;100167.00;;;;5024632;28;20254;-76
2021/01/25 08:28:01;;;;;;;10.05;6.93;;;;;6.10;100165.00;;;;5027529;28;20219;-77
2021/01/25 08:30:35;;;;;;;11.32;7.35;;;;;6.20;100169.00;;;;5024184;28;20198;-76
2021/01/25 08:33:02;;;;;;;12.57;7.80;;;;;6.20;100173.00;;;;5026023;28;20238;-76
2021/01/25 08:35:36;;;;;;;11.57;7.47;;;;;6.20;100175.00;;;;5027553;28;20240;-76
2021/01/25 08:38:12;;;;;;;10.38;6.90;;;;;6.20;100183.00;;;;5020387;28;20204;-76
2021/01/25 08:40:40;;;;;;;13.18;8.48;;;;;6.30;100190.00;;;;5028507;28;20199;-76
2021/01/25 08:43:17;;;;;;;11.80;7.90;;;;;6.30;100188.00;;;;5025931;28;20204;-76
2021/01/25 08:45:45;;;;;;;11.02;7.22;;;;;6.40;100194.00;;;;5016620;28;20300;-77
2021/01/25 08:48:12;;;;;;;11.80;7.82;;;;;6.40;100203.00;;;;5028834;28;20207;-76
2021/01/25 08:50:40;;;;;;;11.77;7.22;;;;;6.40;100201.00;;;;5027690;28;20204;-76
2021/01/25 08:53:09;;;;;;;10.98;7.82;;;;;6.50;100209.00;;;;5027435;28;20208;-76
2021/01/25 08:55:40;;;;;;;11.43;7.45;;;;;6.50;100210.00;;;;5026193;28;20209;-77
2021/01/25 08:58:18;;;;;;;12.63;7.45;;;;;6.40;100213.00;;;;5026982;28;20825;-77
2021/01/25 09:00:48;;;;;;;13.32;8.30;;;;;6.50;100222.00;;;;5024591;28;20224;-76
2021/01/25 09:03:15;;;;;;;12.63;7.88;;;;;6.50;100225.00;;;;5025433;28;20284;-78
2021/01/25 09:05:43;;;;;;;12.57;8.50;;;;;6.60;100226.00;;;;5023383;28;20595;-78
2021/01/25 09:08:10;;;;;;;15.77;8.07;;;;;6.60;100232.00;;;;5026189;28;20197;-77
2021/01/25 09:10:36;;;;;;;11.55;7.45;;;;;6.60;100228.00;;;;5028276;28;20200;-78
2021/01/25 09:13:04;;;;;;;11.55;7.60;;;;;6.70;100232.00;;;;5027507;28;20208;-78
2021/01/25 09:15:31;;;;;;;14.73;8.50;;;;;6.70;100236.00;;;;5028560;28;20220;-78
2021/01/25 09:17:59;;;;;;;14.07;8.10;;;;;6.70;100238.00;;;;5026119;28;21072;-78
2021/01/25 09:20:26;;;;;;;14.05;9.00;;;;;6.80;100240.00;;;;5024482;28;20212;-79
2021/01/25 09:22:53;;;;;;;17.25;8.68;;;;;6.80;100248.00;;;;5026305;28;20200;-78
2021/01/25 09:25:23;;;;;;;11.85;7.75;;;;;6.90;100250.00;;;;5027112;28;20211;-77
2021/01/25 09:27:50;;;;;;;15.88;7.90;;;;;6.90;100254.00;;;;5026212;28;20200;-77
2021/01/25 09:30:18;;;;;;;12.52;8.10;;;;;7.00;100255.00;;;;5025386;28;20204;-77
2021/01/25 09:32:45;;;;;;;12.57;7.65;;;;;7.00;100257.00;;;;5026912;28;20252;-77
2021/01/25 09:35:15;;;;;;;11.38;7.28;;;;;7.00;100262.00;;;;5027581;28;20232;-76
2021/01/25 09:37:42;;;;;;;13.60;7.95;;;;;7.10;100259.00;;;;5028179;28;20575;-76
2021/01/25 09:40:10;;;;;;;14.43;7.90;;;;;7.10;100264.00;;;;5026590;28;20278;-76
2021/01/25 09:42:37;;;;;;;12.73;7.32;;;;;7.20;100263.00;;;;5028307;28;20228;-76
2021/01/25 09:45:05;;;;;;;13.68;8.02;;;;;7.30;100272.00;;;;5027481;28;20204;-77
2021/01/25 09:47:32;;;;;;;11.90;7.63;;;;;7.30;100277.00;;;;5027584;28;20196;-77
2021/01/25 09:49:58;;;;;;;15.27;12.05;;;;;7.40;100273.00;;;;5028052;28;20200;-77
2021/01/25 09:52:26;;;;;;;12.50;8.60;;;;;7.40;100277.00;;;;5028503;28;20204;-77
2021/01/25 09:54:53;;;;;;;12.65;7.07;;;;;7.50;100289.00;;;;5026634;28;20208;-77
2021/01/25 09:57:19;;;;;;;24.67;16.33;;;;;7.50;100292.00;;;;5026661;28;20199;-77
2021/01/25 09:59:47;;;;;;;35.88;20.40;;;;;7.60;100303.00;;;;5027841;28;20200;-77
2021/01/25 10:02:13;;;;;;;20.85;13.40;;;;;7.60;100305.00;;;;5027473;28;20228;-76
2021/01/25 10:04:40;;;;;;;29.17;16.58;;;;;7.70;100310.00;;;;5023535;28;20219;-76
2021/01/25 10:07:07;;;;;;;51.70;25.42;;;;;7.70;100320.00;;;;5028121;28;20252;-76
2021/01/25 10:09:34;;;;;;;39.42;20.60;;;;;7.70;100316.00;;;;5028273;28;20200;-76
2021/01/25 10:12:01;;;;;;;22.83;12.73;;;;;7.80;100321.00;;;;5026387;28;20204;-77
2021/01/25 10:14:29;;;;;;;20.80;13.90;;;;;7.90;100331.00;;;;5023520;28;20200;-78
2021/01/25 10:16:56;;;;;;;17.40;11.18;;;;;7.90;100335.00;;;;5027428;28;20200;-78
2021/01/25 10:19:22;;;;;;;15.07;9.45;;;;;8.00;100332.00;;;;5028176;28;20288;-78
2021/01/25 10:21:49;;;;;;;13.35;10.23;;;;;8.10;100339.00;;;;5027514;28;20239;-80
2021/01/25 10:24:16;;;;;;;23.70;17.65;;;;;8.10;100348.00;;;;5026030;28;20492;-80
2021/01/25 10:26:44;;;;;;;13.07;9.40;;;;;8.20;100347.00;;;;5027603;28;20200;-80
2021/01/25 10:29:11;;;;;;;16.45;11.02;;;;;8.20;100356.00;;;;5027112;28;20200;-80
2021/01/25 10:31:37;;;;;;;14.68;11.50;;;;;8.30;100367.00;;;;5026389;28;20663;-80
2021/01/25 10:34:04;;;;;;;19.30;12.38;;;;;8.40;100367.00;;;;5025602;28;20228;-80
2021/01/25 10:36:31;;;;;;;14.32;8.98;;;;;8.40;100366.00;;;;5027526;28;20203;-80
2021/01/25 10:38:58;;;;;;;14.90;9.52;;;;;8.50;100372.00;;;;5028287;28;20204;-81
2021/01/25 10:41:24;;;;;;;15.70;10.38;;;;;8.60;100374.00;;;;5047480;28;20716;-80
2021/01/25 10:43:52;;;;;;;12.18;7.93;;;;;8.60;100371.00;;;;5019361;28;20270;-80
2021/01/25 10:46:19;;;;;;;16.23;11.85;;;;;8.70;100378.00;;;;5027161;28;20192;-81
2021/01/25 10:48:45;;;;;;;26.45;15.80;;;;;8.70;100384.00;;;;5026420;28;20193;-80
2021/01/25 10:51:12;;;;;;;23.63;15.95;;;;;8.80;100382.00;;;;5027047;28;20661;-80
2021/01/25 10:53:39;;;;;;;36.58;23.05;;;;;8.90;100379.00;;;;5026615;28;20212;-80
2021/01/25 10:56:06;;;;;;;23.85;14.63;;;;;9.00;100395.00;;;;5025714;28;20197;-81
2021/01/25 10:58:33;;;;;;;13.57;9.93;;;;;9.00;100395.00;;;;5026950;28;20189;-80
2021/01/25 11:01:03;;;;;;;20.25;13.13;;;;;9.10;100391.00;;;;5025743;28;20554;-80
2021/01/25 11:03:30;;;;;;;27.08;18.15;;;;;9.10;100397.00;;;;5021636;28;20200;-80
2021/01/25 11:05:57;;;;;;;53.22;24.35;;;;;9.20;100390.00;;;;5027445;28;20204;-81
2021/01/25 11:08:23;;;;;;;38.67;18.88;;;;;9.20;100389.00;;;;5031157;28;20192;-80
2021/01/25 11:10:50;;;;;;;37.25;17.05;;;;;9.30;100403.00;;;;5037846;28;20249;-81
2021/01/25 11:13:17;;;;;;;37.53;19.08;;;;;9.40;100398.00;;;;5031159;28;20211;-81
2021/01/25 11:15:44;;;;;;;21.42;11.88;;;;;9.50;100412.00;;;;5028851;28;20235;-80
2021/01/25 11:18:11;;;;;;;14.32;9.10;;;;;9.60;100403.00;;;;5029966;28;20200;-80
2021/01/25 11:20:38;;;;;;;11.25;7.15;;;;;9.60;100398.00;;;;5031375;28;20200;-80
2021/01/25 11:23:05;;;;;;;8.18;5.55;;;;;9.70;100406.00;;;;5030261;28;20204;-80
2021/01/25 11:25:32;;;;;;;12.18;7.13;;;;;9.80;100410.00;;;;5031225;28;20189;-80
2021/01/25 11:27:58;;;;;;;8.32;5.50;;;;;9.90;100408.00;;;;5029726;28;20807;-81
2021/01/25 11:30:25;;;;;;;5.82;4.15;;;;;10.00;100422.00;;;;5031074;28;20193;-81
2021/01/25 11:32:52;;;;;;;4.72;3.67;;;;;10.00;100423.00;;;;5029339;28;20196;-80
2021/01/25 11:35:19;;;;;;;7.28;4.55;;;;;10.20;100423.00;;;;5030403;28;20247;-81
2021/01/25 11:37:46;;;;;;;6.78;4.30;;;;;10.30;100426.00;;;;5030492;28;20200;-80
2021/01/25 11:40:14;;;;;;;5.95;4.22;;;;;10.40;100428.00;;;;5030813;28;20211;-81
2021/01/25 11:42:40;;;;;;;6.63;3.50;;;;;10.40;100431.00;;;;5028963;28;20266;-78
2021/01/25 11:45:08;;;;;;;7.47;4.18;;;;;10.40;100432.00;;;;5028838;28;20196;-80
2021/01/25 11:47:34;;;;;;;7.60;4.60;;;;;10.40;100424.00;;;;5028972;28;20204;-84
2021/01/25 11:50:02;;;;;;;5.85;3.55;;;;;10.40;100435.00;;;;5025741;28;20674;-81
2021/01/25 11:52:29;;;;;;;4.93;3.30;;;;;10.50;100437.00;;;;5029983;28;20254;-81
2021/01/25 11:54:56;;;;;;;4.60;3.08;;;;;10.50;100440.00;;;;5020329;28;20250;-81
2021/01/25 11:57:23;;;;;;;4.97;3.38;;;;;10.50;100438.00;;;;5028463;28;20219;-81
2021/01/25 11:59:50;;;;;;;5.00;3.58;;;;;10.50;100435.00;;;;5030059;28;20207;-81
2021/01/25 12:02:16;;;;;;;5.68;3.78;;;;;10.60;100429.00;;;;5029085;28;20231;-82
2021/01/25 12:04:43;;;;;;;5.45;3.80;;;;;10.60;100437.00;;;;5027496;28;20758;-81
2021/01/25 12:07:10;;;;;;;5.45;3.10;;;;;10.70;100438.00;;;;5028740;28;20219;-82
2021/01/25 12:09:39;;;;;;;4.53;3.28;;;;;10.70;100433.00;;;;5028459;28;20201;-82
2021/01/25 12:12:06;;;;;;;6.93;3.00;;;;;10.80;100435.00;;;;5030040;28;20206;-81
2021/01/25 12:14:32;;;;;;;6.13;3.58;;;;;10.80;100438.00;;;;5028716;28;20200;-81
2021/01/25 12:16:59;;;;;;;3.60;3.08;;;;;10.90;100428.00;;;;5030309;28;20604;-81
2021/01/25 12:19:26;;;;;;;4.55;2.70;;;;;11.00;100438.00;;;;5028224;28;20205;-81